sensor_id;sensor_type;location;lat;lon;timestamp;pressure;altitude;pressure_sealevel;temperature;humidity
65534;BME280;53640;55.838;37.184;2022-07-17T00:01:15;99009.50;;;15.08;54.79
65534;BME280;53640;55.838;37.184;2022-07-17T00:03:41;99069.06;;;15.43;55.36
65534;BME280;53640;55.838;37.184;2022-07-17T00:06:08;99010.03;;;15.05;55.73
65534;BME280;53640;55.838;37.184;2022-07-17T00:08:34;99046.81;;;15.29;55.79
65534;BME280;53640;55.838;37.184;2022-07-17T00:11:01;99025.41;;;15.16;55.48
65534;BME280;53640;55.838;37.184;2022-07-17T00:13:27;99020.19;;;15.14;56.09
65534;BME280;53640;55.838;37.184;2022-07-17T00:15:54;99058.94;;;15.38;55.65
65534;BME280;53640;55.838;37.184;2022-07-17T00:18:20;99067.47;;;15.47;55.71
65534;BME280;53640;55.838;37.184;2022-07-17T00:20:46;99034.19;;;15.23;56.17
65534;BME280;53640;55.838;37.184;2022-07-17T00:23:13;99045.19;;;15.28;55.78
65534;BME280;53640;55.838;37.184;2022-07-17T00:25:39;99073.25;;;15.51;55.69
65534;BME280;53640;55.838;37.184;2022-07-17T00:28:06;99034.25;;;15.28;56.30
65534;BME280;53640;55.838;37.184;2022-07-17T00:30:32;99018.38;;;15.20;56.17
65534;BME280;53640;55.838;37.184;2022-07-17T00:32:59;99034.50;;;15.27;55.95
65534;BME280;53640;55.838;37.184;2022-07-17T00:35:25;99032.31;;;15.24;55.26
65534;BME280;53640;55.838;37.184;2022-07-17T00:37:52;99057.31;;;15.43;55.30
65534;BME280;53640;55.838;37.184;2022-07-17T00:40:21;99076.81;;;15.51;55.56
65534;BME280;53640;55.838;37.184;2022-07-17T00:42:48;99073.72;;;15.48;55.67
65534;BME280;53640;55.838;37.184;2022-07-17T00:45:15;99007.22;;;15.00;55.88
65534;BME280;53640;55.838;37.184;2022-07-17T00:48:03;99076.41;;;15.43;55.70
65534;BME280;53640;55.838;37.184;2022-07-17T00:50:40;99061.56;;;15.33;55.44
65534;BME280;53640;55.838;37.184;2022-07-17T00:53:07;99080.66;;;15.33;55.74
65534;BME280;53640;55.838;37.184;2022-07-17T00:55:34;99062.88;;;15.26;55.95
65534;BME280;53640;55.838;37.184;2022-07-17T00:58:03;99090.25;;;15.36;55.73
65534;BME280;53640;55.838;37.184;2022-07-17T01:00:30;99053.69;;;15.10;55.63
65534;BME280;53640;55.838;37.184;2022-07-17T01:02:56;99049.84;;;15.06;55.62
65534;BME280;53640;55.838;37.184;2022-07-17T01:05:23;99106.31;;;15.32;55.61
65534;BME280;53640;55.838;37.184;2022-07-17T01:07:50;99052.19;;;14.97;55.59
65534;BME280;53640;55.838;37.184;2022-07-17T01:10:18;99073.28;;;15.07;56.03
65534;BME280;53640;55.838;37.184;2022-07-17T01:12:46;99084.81;;;15.14;55.85
65534;BME280;53640;55.838;37.184;2022-07-17T01:15:13;99099.03;;;15.16;55.78
65534;BME280;53640;55.838;37.184;2022-07-17T01:17:41;99067.06;;;14.89;55.49
65534;BME280;53640;55.838;37.184;2022-07-17T01:20:10;99090.09;;;14.99;55.82
65534;BME280;53640;55.838;37.184;2022-07-17T01:22:44;99106.50;;;15.04;55.68
65534;BME280;53640;55.838;37.184;2022-07-17T01:25:12;99104.81;;;14.98;56.05
65534;BME280;53640;55.838;37.184;2022-07-17T01:27:38;99104.22;;;14.96;56.21
65534;BME280;53640;55.838;37.184;2022-07-17T01:30:05;99084.75;;;14.87;56.36
65534;BME280;53640;55.838;37.184;2022-07-17T01:32:37;99089.63;;;14.85;56.55
65534;BME280;53640;55.838;37.184;2022-07-17T01:35:04;99116.75;;;14.97;56.89
65534;BME280;53640;55.838;37.184;2022-07-17T01:37:31;99115.69;;;14.98;56.50
65534;BME280;53640;55.838;37.184;2022-07-17T01:39:58;99082.47;;;14.79;56.76
65534;BME280;53640;55.838;37.184;2022-07-17T01:42:26;99038.19;;;14.50;56.62
65534;BME280;53640;55.838;37.184;2022-07-17T01:44:54;99058.22;;;14.60;56.31
65534;BME280;53640;55.838;37.184;2022-07-17T01:47:22;99079.88;;;14.67;56.34
65534;BME280;53640;55.838;37.184;2022-07-17T01:49:58;99110.06;;;14.82;56.62
65534;BME280;53640;55.838;37.184;2022-07-17T01:52:25;99113.19;;;14.74;56.33
65534;BME280;53640;55.838;37.184;2022-07-17T01:54:52;99103.19;;;14.80;56.44
65534;BME280;53640;55.838;37.184;2022-07-17T01:57:21;99100.09;;;14.71;56.95
65534;BME280;53640;55.838;37.184;2022-07-17T01:59:48;99072.78;;;14.49;56.63
65534;BME280;53640;55.838;37.184;2022-07-17T02:02:15;99067.50;;;14.42;56.52
65534;BME280;53640;55.838;37.184;2022-07-17T02:04:44;99062.81;;;14.38;56.98
65534;BME280;53640;55.838;37.184;2022-07-17T02:07:12;99081.50;;;14.51;56.59
65534;BME280;53640;55.838;37.184;2022-07-17T02:09:39;99105.78;;;14.70;57.07
65534;BME280;53640;55.838;37.184;2022-07-17T02:12:07;99059.59;;;14.41;57.00
65534;BME280;53640;55.838;37.184;2022-07-17T02:14:35;99111.81;;;14.72;57.23
65534;BME280;53640;55.838;37.184;2022-07-17T02:17:02;99059.34;;;14.42;57.07
65534;BME280;53640;55.838;37.184;2022-07-17T02:19:29;99069.88;;;14.56;57.44
65534;BME280;53640;55.838;37.184;2022-07-17T02:21:55;99057.50;;;14.48;57.63
65534;BME280;53640;55.838;37.184;2022-07-17T02:24:22;99110.88;;;14.83;57.88
65534;BME280;53640;55.838;37.184;2022-07-17T02:26:48;99063.09;;;14.58;57.47
65534;BME280;53640;55.838;37.184;2022-07-17T02:29:14;99090.97;;;14.82;57.64
65534;BME280;53640;55.838;37.184;2022-07-17T02:31:40;99095.34;;;14.83;57.69
65534;BME280;53640;55.838;37.184;2022-07-17T02:34:07;99033.28;;;14.52;57.79
65534;BME280;53640;55.838;37.184;2022-07-17T02:36:33;99067.91;;;14.68;57.50
65534;BME280;53640;55.838;37.184;2022-07-17T02:39:00;99085.75;;;14.81;57.60
65534;BME280;53640;55.838;37.184;2022-07-17T02:41:27;99088.00;;;14.84;57.44
65534;BME280;53640;55.838;37.184;2022-07-17T02:43:53;99100.63;;;14.90;56.92
65534;BME280;53640;55.838;37.184;2022-07-17T02:46:20;99081.91;;;14.77;57.06
65534;BME280;53640;55.838;37.184;2022-07-17T02:48:46;99087.94;;;14.79;56.72
65534;BME280;53640;55.838;37.184;2022-07-17T02:51:12;99089.50;;;14.75;57.16
65534;BME280;53640;55.838;37.184;2022-07-17T02:53:38;99060.84;;;14.55;57.25
65534;BME280;53640;55.838;37.184;2022-07-17T02:56:05;99090.78;;;14.67;57.06
65534;BME280;53640;55.838;37.184;2022-07-17T02:58:31;99076.38;;;14.55;56.96
65534;BME280;53640;55.838;37.184;2022-07-17T03:00:58;99109.09;;;14.72;56.94
65534;BME280;53640;55.838;37.184;2022-07-17T03:03:24;99113.44;;;14.73;56.52
65534;BME280;53640;55.838;37.184;2022-07-17T03:05:50;99111.03;;;14.59;56.59
65534;BME280;53640;55.838;37.184;2022-07-17T03:08:17;99135.91;;;14.63;56.70
65534;BME280;53640;55.838;37.184;2022-07-17T03:10:43;99077.66;;;14.13;56.93
65534;BME280;53640;55.838;37.184;2022-07-17T03:13:09;99012.44;;;13.51;57.75
65534;BME280;53640;55.838;37.184;2022-07-17T03:15:35;99122.31;;;13.96;58.53
65534;BME280;53640;55.838;37.184;2022-07-17T03:18:02;99160.16;;;13.97;60.45
65534;BME280;53640;55.838;37.184;2022-07-17T03:20:28;99152.69;;;13.76;61.33
65534;BME280;53640;55.838;37.184;2022-07-17T03:22:54;99170.97;;;13.80;62.84
65534;BME280;53640;55.838;37.184;2022-07-17T03:25:21;99143.78;;;13.52;63.70
65534;BME280;53640;55.838;37.184;2022-07-17T03:27:47;99148.06;;;13.48;63.98
65534;BME280;53640;55.838;37.184;2022-07-17T03:30:13;99154.88;;;13.50;64.47
65534;BME280;53640;55.838;37.184;2022-07-17T03:32:39;99111.91;;;13.35;65.15
65534;BME280;53640;55.838;37.184;2022-07-17T03:35:06;99132.69;;;13.41;65.43
65534;BME280;53640;55.838;37.184;2022-07-17T03:37:34;99114.31;;;13.32;65.74
65534;BME280;53640;55.838;37.184;2022-07-17T03:40:05;99133.50;;;13.42;65.76
65534;BME280;53640;55.838;37.184;2022-07-17T03:42:32;99113.72;;;13.30;65.96
65534;BME280;53640;55.838;37.184;2022-07-17T03:44:58;99092.22;;;13.16;65.21
65534;BME280;53640;55.838;37.184;2022-07-17T03:47:24;99113.06;;;13.11;64.24
65534;BME280;53640;55.838;37.184;2022-07-17T03:49:51;99129.31;;;13.23;64.33
65534;BME280;53640;55.838;37.184;2022-07-17T03:52:17;99138.78;;;13.20;64.74
65534;BME280;53640;55.838;37.184;2022-07-17T03:54:43;99084.19;;;12.81;64.77
65534;BME280;53640;55.838;37.184;2022-07-17T03:57:09;99137.03;;;13.14;65.37
65534;BME280;53640;55.838;37.184;2022-07-17T03:59:36;99120.16;;;13.00;65.42
65534;BME280;53640;55.838;37.184;2022-07-17T04:02:03;99092.94;;;12.83;65.08
65534;BME280;53640;55.838;37.184;2022-07-17T04:04:29;99107.22;;;12.90;64.93
65534;BME280;53640;55.838;37.184;2022-07-17T04:06:56;99122.53;;;12.96;65.01
65534;BME280;53640;55.838;37.184;2022-07-17T04:09:22;99087.00;;;12.75;65.31
65534;BME280;53640;55.838;37.184;2022-07-17T04:11:48;99092.22;;;12.76;65.13
65534;BME280;53640;55.838;37.184;2022-07-17T04:14:14;99123.97;;;12.99;65.47
65534;BME280;53640;55.838;37.184;2022-07-17T04:16:41;99115.94;;;12.92;66.09
65534;BME280;53640;55.838;37.184;2022-07-17T04:19:07;99098.38;;;12.83;66.42
65534;BME280;53640;55.838;37.184;2022-07-17T04:21:35;99073.66;;;12.73;66.59
65534;BME280;53640;55.838;37.184;2022-07-17T04:24:01;99115.09;;;13.04;66.53
65534;BME280;53640;55.838;37.184;2022-07-17T04:26:27;99106.84;;;12.99;65.35
65534;BME280;53640;55.838;37.184;2022-07-17T04:28:54;99113.09;;;12.99;65.24
65534;BME280;53640;55.838;37.184;2022-07-17T04:31:20;99102.81;;;12.89;65.41
65534;BME280;53640;55.838;37.184;2022-07-17T04:33:46;99085.81;;;12.82;65.87
65534;BME280;53640;55.838;37.184;2022-07-17T04:36:12;99080.28;;;12.77;66.31
65534;BME280;53640;55.838;37.184;2022-07-17T04:38:39;99097.72;;;12.93;67.08
65534;BME280;53640;55.838;37.184;2022-07-17T04:41:05;99061.38;;;12.70;67.33
65534;BME280;53640;55.838;37.184;2022-07-17T04:43:32;99093.63;;;12.90;67.79
65534;BME280;53640;55.838;37.184;2022-07-17T04:45:58;99093.72;;;12.95;68.21
65534;BME280;53640;55.838;37.184;2022-07-17T04:48:24;99119.41;;;13.16;67.93
65534;BME280;53640;55.838;37.184;2022-07-17T04:50:50;99085.78;;;12.94;67.31
65534;BME280;53640;55.838;37.184;2022-07-17T04:53:17;99119.09;;;13.13;66.78
65534;BME280;53640;55.838;37.184;2022-07-17T04:55:43;99113.31;;;13.09;67.26
65534;BME280;53640;55.838;37.184;2022-07-17T04:58:09;99135.00;;;13.21;67.87
65534;BME280;53640;55.838;37.184;2022-07-17T05:00:35;99124.28;;;13.14;67.79
65534;BME280;53640;55.838;37.184;2022-07-17T05:03:02;99098.78;;;13.04;67.77
65534;BME280;53640;55.838;37.184;2022-07-17T05:05:28;99113.88;;;13.11;68.22
65534;BME280;53640;55.838;37.184;2022-07-17T05:07:54;99088.72;;;13.04;68.13
65534;BME280;53640;55.838;37.184;2022-07-17T05:10:20;99086.34;;;13.08;68.13
65534;BME280;53640;55.838;37.184;2022-07-17T05:12:47;99123.28;;;13.32;67.92
65534;BME280;53640;55.838;37.184;2022-07-17T05:15:13;99110.78;;;13.19;68.00
65534;BME280;53640;55.838;37.184;2022-07-17T05:17:39;99113.38;;;13.26;67.53
65534;BME280;53640;55.838;37.184;2022-07-17T05:20:06;99084.25;;;13.10;68.02
65534;BME280;53640;55.838;37.184;2022-07-17T05:22:33;99118.22;;;13.24;68.23
65534;BME280;53640;55.838;37.184;2022-07-17T05:25:00;99114.66;;;13.24;68.57
65534;BME280;53640;55.838;37.184;2022-07-17T05:27:27;99073.84;;;13.07;69.11
65534;BME280;53640;55.838;37.184;2022-07-17T05:29:53;99116.78;;;13.33;69.17
65534;BME280;53640;55.838;37.184;2022-07-17T05:32:19;99113.22;;;13.33;69.47
65534;BME280;53640;55.838;37.184;2022-07-17T05:34:46;99125.13;;;13.43;67.84
65534;BME280;53640;55.838;37.184;2022-07-17T05:37:12;99131.81;;;13.53;67.44
65534;BME280;53640;55.838;37.184;2022-07-17T05:39:38;99097.13;;;13.31;68.04
65534;BME280;53640;55.838;37.184;2022-07-17T05:42:05;99117.66;;;13.51;67.99
65534;BME280;53640;55.838;37.184;2022-07-17T05:44:32;99127.66;;;13.62;67.35
65534;BME280;53640;55.838;37.184;2022-07-17T05:46:58;99114.28;;;13.60;67.36
65534;BME280;53640;55.838;37.184;2022-07-17T05:49:25;99123.72;;;13.69;68.36
65534;BME280;53640;55.838;37.184;2022-07-17T05:51:51;99105.50;;;13.70;68.34
65534;BME280;53640;55.838;37.184;2022-07-17T05:54:18;99112.53;;;13.83;68.14
65534;BME280;53640;55.838;37.184;2022-07-17T05:56:44;99089.88;;;13.77;68.05
65534;BME280;53640;55.838;37.184;2022-07-17T05:59:10;99100.69;;;13.89;67.74
65534;BME280;53640;55.838;37.184;2022-07-17T06:01:36;99078.09;;;13.88;67.26
65534;BME280;53640;55.838;37.184;2022-07-17T06:04:03;99073.31;;;13.96;67.97
65534;BME280;53640;55.838;37.184;2022-07-17T06:06:29;99102.94;;;14.26;66.14
65534;BME280;53640;55.838;37.184;2022-07-17T06:08:55;99105.22;;;14.34;67.27
65534;BME280;53640;55.838;37.184;2022-07-17T06:11:22;99108.09;;;14.44;66.70
65534;BME280;53640;55.838;37.184;2022-07-17T06:13:48;99110.91;;;14.49;65.54
65534;BME280;53640;55.838;37.184;2022-07-17T06:16:14;99104.44;;;14.55;64.43
65534;BME280;53640;55.838;37.184;2022-07-17T06:18:40;99102.41;;;14.62;62.20
65534;BME280;53640;55.838;37.184;2022-07-17T06:21:07;99118.13;;;14.77;62.66
65534;BME280;53640;55.838;37.184;2022-07-17T06:23:33;99075.88;;;14.58;61.28
65534;BME280;53640;55.838;37.184;2022-07-17T06:26:00;99090.88;;;14.77;59.85
65534;BME280;53640;55.838;37.184;2022-07-17T06:28:26;99081.94;;;14.82;60.27
65534;BME280;53640;55.838;37.184;2022-07-17T06:30:53;99107.06;;;15.06;61.53
65534;BME280;53640;55.838;37.184;2022-07-17T06:33:19;99081.78;;;15.10;61.85
65534;BME280;53640;55.838;37.184;2022-07-17T06:35:45;99098.69;;;15.34;59.88
65534;BME280;53640;55.838;37.184;2022-07-17T06:38:12;99063.59;;;15.16;59.46
65534;BME280;53640;55.838;37.184;2022-07-17T06:40:38;99075.84;;;15.41;60.10
65534;BME280;53640;55.838;37.184;2022-07-17T06:43:05;99101.16;;;15.58;58.49
65534;BME280;53640;55.838;37.184;2022-07-17T06:45:32;99055.66;;;15.42;59.14
65534;BME280;53640;55.838;37.184;2022-07-17T06:47:59;99049.16;;;15.43;58.15
65534;BME280;53640;55.838;37.184;2022-07-17T06:50:25;99048.75;;;15.56;57.94
65534;BME280;53640;55.838;37.184;2022-07-17T06:52:51;99102.63;;;15.98;56.59
65534;BME280;53640;55.838;37.184;2022-07-17T06:55:17;99058.19;;;15.75;57.01
65534;BME280;53640;55.838;37.184;2022-07-17T06:57:44;99061.63;;;15.93;58.44
65534;BME280;53640;55.838;37.184;2022-07-17T07:00:10;99101.72;;;16.24;57.14
65534;BME280;53640;55.838;37.184;2022-07-17T07:02:37;99085.34;;;16.24;56.86
65534;BME280;53640;55.838;37.184;2022-07-17T07:05:04;99095.88;;;16.43;56.38
65534;BME280;53640;55.838;37.184;2022-07-17T07:07:30;99065.72;;;16.27;55.27
65534;BME280;53640;55.838;37.184;2022-07-17T07:09:56;99064.69;;;16.33;55.18
65534;BME280;53640;55.838;37.184;2022-07-17T07:12:23;99109.72;;;16.68;52.75
65534;BME280;53640;55.838;37.184;2022-07-17T07:14:49;99007.75;;;16.20;52.15
65534;BME280;53640;55.838;37.184;2022-07-17T07:17:16;99086.84;;;16.85;51.95
65534;BME280;53640;55.838;37.184;2022-07-17T07:19:42;99069.91;;;16.88;51.23
65534;BME280;53640;55.838;37.184;2022-07-17T07:22:09;99089.16;;;17.08;50.42
65534;BME280;53640;55.838;37.184;2022-07-17T07:24:35;99079.56;;;17.11;50.14
65534;BME280;53640;55.838;37.184;2022-07-17T07:27:02;99062.38;;;17.15;50.52
65534;BME280;53640;55.838;37.184;2022-07-17T07:29:28;99099.69;;;17.52;54.69
65534;BME280;53640;55.838;37.184;2022-07-17T07:31:54;99098.09;;;17.71;52.94
65534;BME280;53640;55.838;37.184;2022-07-17T07:34:20;99059.22;;;17.69;55.94
65534;BME280;53640;55.838;37.184;2022-07-17T07:36:47;99046.91;;;17.77;51.07
65534;BME280;53640;55.838;37.184;2022-07-17T07:39:13;99016.53;;;17.68;47.97
65534;BME280;53640;55.838;37.184;2022-07-17T07:41:39;99027.75;;;17.97;49.32
65534;BME280;53640;55.838;37.184;2022-07-17T07:44:06;99077.84;;;18.39;46.57
65534;BME280;53640;55.838;37.184;2022-07-17T07:46:33;99012.41;;;18.17;46.43
65534;BME280;53640;55.838;37.184;2022-07-17T07:49:00;99029.09;;;18.36;44.79
65534;BME280;53640;55.838;37.184;2022-07-17T07:51:26;99080.84;;;18.78;44.68
65534;BME280;53640;55.838;37.184;2022-07-17T07:53:53;99072.31;;;18.85;43.40
65534;BME280;53640;55.838;37.184;2022-07-17T07:56:19;99076.34;;;19.03;46.19
65534;BME280;53640;55.838;37.184;2022-07-17T07:58:46;99062.59;;;19.13;43.40
65534;BME280;53640;55.838;37.184;2022-07-17T08:01:12;99055.94;;;19.24;45.06
65534;BME280;53640;55.838;37.184;2022-07-17T08:03:38;99069.31;;;19.41;44.63
65534;BME280;53640;55.838;37.184;2022-07-17T08:06:05;99086.28;;;19.53;44.41
65534;BME280;53640;55.838;37.184;2022-07-17T08:08:31;99075.03;;;19.50;48.10
65534;BME280;53640;55.838;37.184;2022-07-17T08:10:57;99096.69;;;19.56;46.48
65534;BME280;53640;55.838;37.184;2022-07-17T08:13:23;99088.53;;;19.41;49.20
65534;BME280;53640;55.838;37.184;2022-07-17T08:15:50;99072.69;;;19.22;47.63
65534;BME280;53640;55.838;37.184;2022-07-17T08:18:16;99112.72;;;19.34;46.11
65534;BME280;53640;55.838;37.184;2022-07-17T08:20:42;99102.38;;;19.15;49.97
65534;BME280;53640;55.838;37.184;2022-07-17T08:23:10;99090.97;;;18.72;50.54
65534;BME280;53640;55.838;37.184;2022-07-17T08:25:36;99111.25;;;18.77;51.04
65534;BME280;53640;55.838;37.184;2022-07-17T08:28:04;99092.66;;;18.43;51.82
65534;BME280;53640;55.838;37.184;2022-07-17T08:30:31;99116.50;;;18.42;52.60
65534;BME280;53640;55.838;37.184;2022-07-17T08:33:04;99121.19;;;18.26;52.40
65534;BME280;53640;55.838;37.184;2022-07-17T08:35:31;99097.06;;;18.03;50.02
65534;BME280;53640;55.838;37.184;2022-07-17T08:37:57;99101.47;;;17.99;49.67
65534;BME280;53640;55.838;37.184;2022-07-17T08:40:29;99091.00;;;17.86;49.37
65534;BME280;53640;55.838;37.184;2022-07-17T08:42:57;99129.38;;;18.01;49.96
65534;BME280;53640;55.838;37.184;2022-07-17T08:45:24;99098.13;;;17.82;50.51
65534;BME280;53640;55.838;37.184;2022-07-17T08:47:53;99090.44;;;17.78;49.98
65534;BME280;53640;55.838;37.184;2022-07-17T08:50:23;99134.84;;;18.01;50.19
65534;BME280;53640;55.838;37.184;2022-07-17T08:52:49;99080.56;;;17.67;49.22
65534;BME280;53640;55.838;37.184;2022-07-17T08:55:16;99085.50;;;17.70;49.63
65534;BME280;53640;55.838;37.184;2022-07-17T08:57:44;99105.25;;;17.88;50.45
65534;BME280;53640;55.838;37.184;2022-07-17T09:00:12;99081.72;;;18.07;51.71
65534;BME280;53640;55.838;37.184;2022-07-17T09:02:40;99094.84;;;18.56;50.26
65534;BME280;53640;55.838;37.184;2022-07-17T09:05:07;99138.31;;;19.19;51.14
65534;BME280;53640;55.838;37.184;2022-07-17T09:07:45;99140.72;;;19.31;52.09
65534;BME280;53640;55.838;37.184;2022-07-17T09:10:11;99111.13;;;19.17;47.49
65534;BME280;53640;55.838;37.184;2022-07-17T09:12:38;99117.00;;;19.55;47.02
65534;BME280;53640;55.838;37.184;2022-07-17T09:15:16;99075.69;;;19.76;49.51
65534;BME280;53640;55.838;37.184;2022-07-17T09:17:50;99109.88;;;20.33;44.09
65534;BME280;53640;55.838;37.184;2022-07-17T09:20:17;99123.88;;;20.65;40.23
65534;BME280;53640;55.838;37.184;2022-07-17T09:22:56;99102.88;;;20.75;40.42
65534;BME280;53640;55.838;37.184;2022-07-17T09:25:37;99138.84;;;21.31;37.76
65534;BME280;53640;55.838;37.184;2022-07-17T09:28:05;99129.91;;;21.63;37.68
65534;BME280;53640;55.838;37.184;2022-07-17T09:30:32;99096.31;;;21.61;37.76
65534;BME280;53640;55.838;37.184;2022-07-17T09:33:00;99132.88;;;22.05;36.64
65534;BME280;53640;55.838;37.184;2022-07-17T09:35:26;99103.75;;;21.99;36.54
65534;BME280;53640;55.838;37.184;2022-07-17T09:37:53;99129.88;;;22.39;38.21
65534;BME280;53640;55.838;37.184;2022-07-17T09:40:21;99090.06;;;22.59;36.02
65534;BME280;53640;55.838;37.184;2022-07-17T09:43:07;99118.44;;;23.20;36.01
65534;BME280;53640;55.838;37.184;2022-07-17T09:45:35;99117.19;;;23.40;33.95
65534;BME280;53640;55.838;37.184;2022-07-17T09:48:02;99095.47;;;23.61;33.63
65534;BME280;53640;55.838;37.184;2022-07-17T09:50:29;99050.03;;;23.67;33.18
65534;BME280;53640;55.838;37.184;2022-07-17T09:52:56;99045.63;;;23.88;32.01
65534;BME280;53640;55.838;37.184;2022-07-17T09:55:30;99095.50;;;24.50;31.40
65534;BME280;53640;55.838;37.184;2022-07-17T09:57:58;99091.03;;;24.94;36.48
65534;BME280;53640;55.838;37.184;2022-07-17T10:00:26;99096.97;;;25.19;33.63
65534;BME280;53640;55.838;37.184;2022-07-17T10:02:53;99101.13;;;25.65;34.51
65534;BME280;53640;55.838;37.184;2022-07-17T10:05:19;99075.41;;;25.73;35.78
65534;BME280;53640;55.838;37.184;2022-07-17T10:07:47;99123.03;;;26.18;36.43
65534;BME280;53640;55.838;37.184;2022-07-17T10:10:15;99099.38;;;25.95;34.33
65534;BME280;53640;55.838;37.184;2022-07-17T10:12:43;99072.44;;;25.61;29.92
65534;BME280;53640;55.838;37.184;2022-07-17T10:15:11;99113.91;;;26.01;30.24
65534;BME280;53640;55.838;37.184;2022-07-17T10:17:38;99077.16;;;25.60;30.82
65534;BME280;53640;55.838;37.184;2022-07-17T10:20:05;99110.56;;;25.46;31.92
65534;BME280;53640;55.838;37.184;2022-07-17T10:22:45;99080.56;;;24.83;31.51
65534;BME280;53640;55.838;37.184;2022-07-17T10:25:15;99002.09;;;23.94;31.89
65534;BME280;53640;55.838;37.184;2022-07-17T10:27:49;99105.66;;;24.33;31.25
65534;BME280;53640;55.838;37.184;2022-07-17T10:30:24;99087.28;;;23.92;31.84
65534;BME280;53640;55.838;37.184;2022-07-17T10:32:52;99074.31;;;23.56;32.33
65534;BME280;53640;55.838;37.184;2022-07-17T10:35:19;99106.69;;;23.42;33.10
65534;BME280;53640;55.838;37.184;2022-07-17T10:37:45;99082.66;;;23.01;33.71
65534;BME280;53640;55.838;37.184;2022-07-17T10:40:26;99073.13;;;22.66;33.22
65534;BME280;53640;55.838;37.184;2022-07-17T10:43:03;99020.00;;;22.14;34.00
65534;BME280;53640;55.838;37.184;2022-07-17T10:48:06;99095.53;;;22.31;33.15
65534;BME280;53640;55.838;37.184;2022-07-17T10:55:41;99090.78;;;22.18;34.47
65534;BME280;53640;55.838;37.184;2022-07-17T11:01:09;99049.78;;;23.27;33.09
65534;BME280;53640;55.838;37.184;2022-07-17T11:03:47;99024.41;;;23.39;31.55
65534;BME280;53640;55.838;37.184;2022-07-17T11:06:24;99083.88;;;23.95;32.34
65534;BME280;53640;55.838;37.184;2022-07-17T11:11:22;99061.03;;;24.25;28.34
65534;BME280;53640;55.838;37.184;2022-07-17T11:13:50;99049.78;;;24.53;28.15
65534;BME280;53640;55.838;37.184;2022-07-17T11:16:29;99079.09;;;25.25;27.97
65534;BME280;53640;55.838;37.184;2022-07-17T11:18:56;99030.66;;;25.31;27.32
65534;BME280;53640;55.838;37.184;2022-07-17T11:21:22;99027.13;;;25.74;27.32
65534;BME280;53640;55.838;37.184;2022-07-17T11:23:53;99080.16;;;26.63;25.96
65534;BME280;53640;55.838;37.184;2022-07-17T11:26:20;99048.09;;;26.74;25.13
65534;BME280;53640;55.838;37.184;2022-07-17T11:28:48;99088.19;;;27.32;25.41
65534;BME280;53640;55.838;37.184;2022-07-17T11:31:19;98966.19;;;26.89;26.96
65534;BME280;53640;55.838;37.184;2022-07-17T11:33:54;99067.69;;;27.87;25.91
65534;BME280;53640;55.838;37.184;2022-07-17T11:36:32;99075.22;;;28.41;24.97
65534;BME280;53640;55.838;37.184;2022-07-17T11:39:02;99017.78;;;28.36;24.84
65534;BME280;53640;55.838;37.184;2022-07-17T11:41:43;99064.00;;;28.62;24.56
65534;BME280;53640;55.838;37.184;2022-07-17T11:44:15;99050.69;;;28.22;26.03
65534;BME280;53640;55.838;37.184;2022-07-17T11:46:45;99056.28;;;28.01;25.43
65534;BME280;53640;55.838;37.184;2022-07-17T11:49:26;99064.97;;;27.79;25.92
65534;BME280;53640;55.838;37.184;2022-07-17T11:51:56;99015.72;;;27.16;26.25
65534;BME280;53640;55.838;37.184;2022-07-17T11:54:23;99040.13;;;27.32;25.87
65534;BME280;53640;55.838;37.184;2022-07-17T11:56:56;99069.13;;;27.22;25.42
65534;BME280;53640;55.838;37.184;2022-07-17T11:59:29;99030.94;;;26.42;27.13
65534;BME280;53640;55.838;37.184;2022-07-17T12:01:56;99064.78;;;26.18;27.32
65534;BME280;53640;55.838;37.184;2022-07-17T12:04:22;99035.72;;;25.46;28.79
65534;BME280;53640;55.838;37.184;2022-07-17T12:07:07;99049.34;;;24.99;28.52
65534;BME280;53640;55.838;37.184;2022-07-17T12:09:33;99032.19;;;24.49;28.90
65534;BME280;53640;55.838;37.184;2022-07-17T12:12:00;99047.78;;;24.14;29.04
65534;BME280;53640;55.838;37.184;2022-07-17T12:14:27;98945.31;;;23.06;30.99
65534;BME280;53640;55.838;37.184;2022-07-17T12:16:57;99055.81;;;23.43;31.62
65534;BME280;53640;55.838;37.184;2022-07-17T12:19:24;99073.09;;;23.21;31.94
65534;BME280;53640;55.838;37.184;2022-07-17T12:22:01;99075.28;;;22.96;32.31
65534;BME280;53640;55.838;37.184;2022-07-17T12:26:57;99060.31;;;22.56;33.07
65534;BME280;53640;55.838;37.184;2022-07-17T12:29:24;99034.13;;;22.26;33.51
65534;BME280;53640;55.838;37.184;2022-07-17T12:32:20;99061.84;;;22.34;34.07
65534;BME280;53640;55.838;37.184;2022-07-17T12:34:48;99067.84;;;22.36;34.06
65534;BME280;53640;55.838;37.184;2022-07-17T12:37:17;99040.34;;;22.18;34.87
65534;BME280;53640;55.838;37.184;2022-07-17T12:39:44;99038.44;;;22.32;34.19
65534;BME280;53640;55.838;37.184;2022-07-17T12:42:11;98981.34;;;21.86;34.98
65534;BME280;53640;55.838;37.184;2022-07-17T12:44:37;99059.25;;;22.38;33.95
65534;BME280;53640;55.838;37.184;2022-07-17T12:47:04;99032.66;;;22.15;33.42
65534;BME280;53640;55.838;37.184;2022-07-17T12:49:30;99050.88;;;22.16;33.75
65534;BME280;53640;55.838;37.184;2022-07-17T12:51:57;99050.41;;;22.08;34.18
65534;BME280;53640;55.838;37.184;2022-07-17T12:54:23;99038.50;;;21.94;33.71
65534;BME280;53640;55.838;37.184;2022-07-17T12:56:50;99047.81;;;21.98;33.48
65534;BME280;53640;55.838;37.184;2022-07-17T12:59:16;99043.16;;;21.80;33.95
65534;BME280;53640;55.838;37.184;2022-07-17T13:01:43;99029.53;;;21.70;33.99
65534;BME280;53640;55.838;37.184;2022-07-17T13:04:11;99075.97;;;21.95;35.21
65534;BME280;53640;55.838;37.184;2022-07-17T13:06:38;99024.13;;;21.64;36.37
65534;BME280;53640;55.838;37.184;2022-07-17T13:09:05;99036.91;;;21.74;36.84